Time,TemperatureF,DewpointF,PressureIn,WindDirection,WindDirectionDegrees,WindSpeedMPH,WindSpeedGustMPH,Humidity,HourlyPrecipIn,Conditions,Clouds,dailyrainin,SoftwareType,DateUTC
2013-07-20 00:01:00,81.0,74.9,29.80,West,270,0.0,0.0,82,0.00,,,0.00,pywws,2013-07-20 04:01:00,
2013-07-20 00:05:00,81.0,74.9,29.80,West,270,0.0,0.0,82,0.00,,,0.00,pywws,2013-07-20 04:05:00,
2013-07-20 00:08:00,81.0,74.9,29.80,West,270,0.0,0.0,82,0.00,,,0.00,pywws,2013-07-20 04:08:00,
2013-07-20 00:17:00,81.1,75.1,29.80,West,270,0.0,0.0,82,0.00,,,0.00,pywws,2013-07-20 04:17:00,
2013-07-20 00:22:00,81.1,75.1,29.80,West,270,0.0,0.0,82,0.00,,,0.00,pywws,2013-07-20 04:22:00,
2013-07-20 00:28:00,81.0,74.9,29.80,North,0,0.0,0.0,82,0.00,,,0.00,pywws,2013-07-20 04:28:00,
2013-07-20 00:34:00,80.8,74.8,29.80,North,0,0.0,0.0,82,0.00,,,0.00,pywws,2013-07-20 04:34:00,
2013-07-20 00:41:00,80.4,74.8,29.80,West,270,0.0,0.0,83,0.00,,,0.00,pywws,2013-07-20 04:41:00,
2013-07-20 00:47:00,80.4,74.8,29.79,West,270,0.0,0.0,83,0.00,,,0.00,pywws,2013-07-20 04:47:00,
2013-07-20 00:53:00,80.4,75.1,29.80,West,270,0.0,0.0,84,0.00,,,0.00,pywws,2013-07-20 04:53:00,
2013-07-20 00:58:00,80.2,75.0,29.79,West,270,0.0,0.0,84,0.00,,,0.00,pywws,2013-07-20 04:58:00,
2013-07-20 01:04:00,80.1,74.8,29.80,West,270,0.0,0.0,84,0.00,,,0.00,pywws,2013-07-20 05:04:00,
2013-07-20 01:10:00,79.9,74.6,29.80,West,270,0.0,0.0,84,0.00,,,0.00,pywws,2013-07-20 05:10:00,
2013-07-20 01:16:00,79.7,74.4,29.80,West,270,0.0,0.0,84,0.00,,,0.00,pywws,2013-07-20 05:16:00,
2013-07-20 01:21:00,79.2,73.9,29.80,West,270,0.0,0.0,84,0.00,,,0.00,pywws,2013-07-20 05:21:00,
2013-07-20 01:27:00,79.3,74.4,29.80,West,270,0.0,0.0,85,0.00,,,0.00,pywws,2013-07-20 05:27:00,
2013-07-20 01:33:00,79.7,74.8,29.80,West,270,0.0,0.0,85,0.00,,,0.00,pywws,2013-07-20 05:33:00,
2013-07-20 01:38:00,79.2,74.2,29.80,North,0,0.0,0.0,85,0.00,,,0.00,pywws,2013-07-20 05:38:00,
2013-07-20 01:44:00,79.3,74.4,29.80,NW,315,0.0,0.0,85,0.00,,,0.00,pywws,2013-07-20 05:44:00,
2013-07-20 01:49:00,79.3,74.4,29.81,West,270,0.0,0.0,85,0.00,,,0.00,pywws,2013-07-20 05:49:00,
2013-07-20 01:55:00,79.7,74.8,29.81,West,270,0.0,0.0,85,0.00,,,0.00,pywws,2013-07-20 05:55:00,
2013-07-20 02:01:00,79.9,75.0,29.80,North,0,0.0,0.0,85,0.00,,,0.00,pywws,2013-07-20 06:01:00,
2013-07-20 02:06:00,79.5,74.2,29.80,West,270,0.0,0.0,84,0.00,,,0.00,pywws,2013-07-20 06:06:00,
2013-07-20 02:12:00,79.5,74.2,29.80,West,270,0.0,0.0,84,0.00,,,0.00,pywws,2013-07-20 06:12:00,
2013-07-20 02:17:00,79.3,74.4,29.80,West,270,0.0,0.0,85,0.00,,,0.00,pywws,2013-07-20 06:17:00,
2013-07-20 02:23:00,79.2,74.2,29.80,West,270,0.0,0.0,85,0.00,,,0.00,pywws,2013-07-20 06:23:00,
2013-07-20 02:29:00,78.8,73.9,29.79,West,270,0.0,0.0,85,0.00,,,0.00,pywws,2013-07-20 06:29:00,
2013-07-20 02:35:00,78.8,73.9,29.79,West,270,0.0,0.0,85,0.00,,,0.00,pywws,2013-07-20 06:35:00,
2013-07-20 02:41:00,78.4,74.2,29.79,West,270,0.0,0.0,87,0.00,,,0.00,pywws,2013-07-20 06:41:00,
2013-07-20 02:46:00,78.4,74.2,29.79,South,180,0.0,0.0,87,0.00,,,0.00,pywws,2013-07-20 06:46:00,
2013-07-20 02:53:00,78.3,74.1,29.79,South,180,0.0,0.0,87,0.00,,,0.00,pywws,2013-07-20 06:53:00,
2013-07-20 02:58:00,78.1,73.9,29.78,North,0,0.0,0.0,87,0.00,,,0.00,pywws,2013-07-20 06:58:00,
2013-07-20 03:04:00,77.9,74.0,29.78,North,0,0.0,0.0,88,0.00,,,0.00,pywws,2013-07-20 07:04:00,
2013-07-20 03:10:00,77.4,73.5,29.78,North,0,0.0,0.0,88,0.00,,,0.00,pywws,2013-07-20 07:10:00,
2013-07-20 03:16:00,77.0,73.2,29.78,North,0,0.0,0.0,88,0.00,,,0.00,pywws,2013-07-20 07:16:00,
2013-07-20 03:21:00,76.6,73.5,29.78,North,0,0.0,0.0,90,0.00,,,0.00,pywws,2013-07-20 07:21:00,
2013-07-20 03:30:00,77.0,73.8,29.78,North,0,0.0,0.0,90,0.00,,,0.00,pywws,2013-07-20 07:30:00,
2013-07-20 03:36:00,76.6,73.8,29.78,North,0,0.0,0.0,91,0.00,,,0.00,pywws,2013-07-20 07:36:00,
2013-07-20 03:41:00,76.5,73.6,29.78,North,0,0.0,0.0,91,0.00,,,0.00,pywws,2013-07-20 07:41:00,
2013-07-20 03:48:00,75.9,73.4,29.78,North,0,0.0,0.0,92,0.00,,,0.00,pywws,2013-07-20 07:48:00,
2013-07-20 03:53:00,75.9,73.4,29.78,North,0,0.0,0.0,92,0.00,,,0.00,pywws,2013-07-20 07:53:00,
2013-07-20 03:59:00,75.7,73.2,29.78,West,270,0.0,0.0,92,0.00,,,0.00,pywws,2013-07-20 07:59:00,
2013-07-20 04:05:00,75.6,73.4,29.78,West,270,0.0,0.0,93,0.00,,,0.00,pywws,2013-07-20 08:05:00,
2013-07-20 04:11:00,75.9,74.1,29.78,North,0,0.0,0.0,94,0.00,,,0.00,pywws,2013-07-20 08:11:00,
2013-07-20 04:17:00,75.4,73.5,29.78,North,0,0.0,0.0,94,0.00,,,0.00,pywws,2013-07-20 08:17:00,
2013-07-20 04:25:00,75.6,73.7,29.78,North,0,0.0,0.0,94,0.00,,,0.00,pywws,2013-07-20 08:25:00,
2013-07-20 04:30:00,75.2,73.3,29.78,North,0,0.0,0.0,94,0.00,,,0.00,pywws,2013-07-20 08:30:00,
2013-07-20 04:36:00,75.2,73.3,29.77,North,0,0.0,0.0,94,0.00,,,0.00,pywws,2013-07-20 08:36:00,
2013-07-20 04:41:00,75.4,73.5,29.77,North,0,0.0,0.0,94,0.00,,,0.00,pywws,2013-07-20 08:41:00,
2013-07-20 04:48:00,75.4,73.5,29.76,North,0,0.0,0.0,94,0.00,,,0.00,pywws,2013-07-20 08:48:00,
2013-07-20 04:53:00,75.6,73.7,29.76,North,0,0.0,0.0,94,0.00,,,0.00,pywws,2013-07-20 08:53:00,
2013-07-20 05:00:00,75.6,74.0,29.77,North,0,0.0,0.0,95,0.00,,,0.00,pywws,2013-07-20 09:00:00,
2013-07-20 05:06:00,75.0,73.8,29.76,North,0,0.0,0.0,96,0.00,,,0.00,pywws,2013-07-20 09:06:00,
2013-07-20 05:12:00,75.4,73.8,29.76,North,0,0.0,0.0,95,0.00,,,0.00,pywws,2013-07-20 09:12:00,
2013-07-20 05:19:00,75.2,73.7,29.76,North,0,0.0,0.0,95,0.00,,,0.00,pywws,2013-07-20 09:19:00,
2013-07-20 05:25:00,75.0,73.8,29.77,North,0,0.0,0.0,96,0.00,,,0.00,pywws,2013-07-20 09:25:00,
2013-07-20 05:30:00,75.0,73.8,29.77,North,0,0.0,0.0,96,0.00,,,0.00,pywws,2013-07-20 09:30:00,
2013-07-20 05:36:00,75.2,73.7,29.76,North,0,0.0,0.0,95,0.00,,,0.00,pywws,2013-07-20 09:36:00,
2013-07-20 05:42:00,75.4,73.8,29.76,North,0,0.0,0.0,95,0.00,,,0.00,pywws,2013-07-20 09:42:00,
2013-07-20 05:49:00,75.2,73.7,29.76,North,0,0.0,0.0,95,0.00,,,0.00,pywws,2013-07-20 09:49:00,
2013-07-20 05:54:00,75.2,73.7,29.77,North,0,0.0,0.0,95,0.00,,,0.00,pywws,2013-07-20 09:54:00,
2013-07-20 06:01:00,75.4,73.8,29.77,North,0,0.0,0.0,95,0.00,,,0.00,pywws,2013-07-20 10:01:00,
2013-07-20 06:06:00,75.6,74.0,29.77,North,0,0.0,0.0,95,0.00,,,0.00,pywws,2013-07-20 10:06:00,
2013-07-20 06:13:00,75.7,74.2,29.77,North,0,0.0,0.0,95,0.00,,,0.00,pywws,2013-07-20 10:13:00,
2013-07-20 06:18:00,76.3,74.7,29.78,North,0,0.0,0.0,95,0.00,,,0.00,pywws,2013-07-20 10:18:00,
2013-07-20 06:24:00,76.6,75.1,29.78,North,0,0.0,0.0,95,0.00,,,0.00,pywws,2013-07-20 10:24:00,
2013-07-20 06:29:00,77.0,75.1,29.78,North,0,0.0,0.0,94,0.00,,,0.00,pywws,2013-07-20 10:29:00,
2013-07-20 06:37:00,77.5,75.7,29.78,North,0,0.0,0.0,94,0.00,,,0.00,pywws,2013-07-20 10:37:00,
2013-07-20 06:42:00,78.1,76.2,29.78,South,180,0.0,0.0,94,0.00,,,0.00,pywws,2013-07-20 10:42:00,
2013-07-20 06:48:00,78.6,76.4,29.77,South,180,0.0,0.0,93,0.00,,,0.00,pywws,2013-07-20 10:48:00,
2013-07-20 06:53:00,79.2,76.3,29.77,South,180,0.0,0.0,91,0.00,,,0.00,pywws,2013-07-20 10:53:00,
2013-07-20 06:59:00,80.2,76.7,29.78,West,270,0.0,0.0,89,0.00,,,0.00,pywws,2013-07-20 10:59:00,
2013-07-20 07:05:00,81.3,76.7,29.78,West,270,0.0,0.0,86,0.00,,,0.00,pywws,2013-07-20 11:05:00,
2013-07-20 07:10:00,81.3,75.6,29.78,South,180,0.0,0.0,83,0.00,,,0.00,pywws,2013-07-20 11:10:00,
2013-07-20 07:16:00,83.3,77.2,29.78,West,270,0.0,0.0,82,0.00,,,0.00,pywws,2013-07-20 11:16:00,
2013-07-20 07:21:00,84.4,76.7,29.78,West,270,0.0,0.0,78,0.00,,,0.00,pywws,2013-07-20 11:21:00,
2013-07-20 07:27:00,85.1,76.7,29.78,West,270,0.0,0.0,76,0.00,,,0.00,pywws,2013-07-20 11:27:00,
2013-07-20 07:33:00,82.9,74.6,29.78,West,270,0.0,0.0,76,0.00,,,0.00,pywws,2013-07-20 11:33:00,
2013-07-20 07:38:00,85.8,77.0,29.78,West,270,0.0,0.0,75,0.00,,,0.00,pywws,2013-07-20 11:38:00,
2013-07-20 07:44:00,88.5,77.9,29.78,West,270,0.0,0.0,71,0.00,,,0.00,pywws,2013-07-20 11:44:00,
2013-07-20 07:49:00,88.2,76.2,29.78,NW,315,0.0,0.0,68,0.00,,,0.00,pywws,2013-07-20 11:49:00,
2013-07-20 07:55:00,86.5,75.1,29.78,North,0,0.0,0.0,69,0.00,,,0.00,pywws,2013-07-20 11:55:00,
2013-07-20 08:01:00,86.2,75.2,29.78,West,270,0.0,0.7,70,0.00,,,0.00,pywws,2013-07-20 12:01:00,
2013-07-20 08:06:00,87.4,76.4,29.78,SW,225,0.0,0.0,70,0.00,,,0.00,pywws,2013-07-20 12:06:00,
2013-07-20 08:12:00,87.8,75.4,29.78,SW,225,0.0,0.0,67,0.00,,,0.00,pywws,2013-07-20 12:12:00,
2013-07-20 08:17:00,88.5,75.7,29.78,SW,225,0.0,0.0,66,0.00,,,0.00,pywws,2013-07-20 12:17:00,
2013-07-20 08:23:00,89.2,75.9,29.78,SW,225,0.0,0.7,65,0.00,,,0.00,pywws,2013-07-20 12:23:00,
2013-07-20 08:29:00,90.7,76.3,29.78,West,270,0.0,0.0,63,0.00,,,0.00,pywws,2013-07-20 12:29:00,
2013-07-20 08:34:00,88.5,74.8,29.78,West,270,0.0,0.0,64,0.00,,,0.00,pywws,2013-07-20 12:34:00,
2013-07-20 08:40:00,89.8,75.0,29.78,South,180,0.0,0.0,62,0.00,,,0.00,pywws,2013-07-20 12:40:00,
2013-07-20 08:45:00,88.5,74.8,29.78,West,270,0.0,0.0,64,0.00,,,0.00,pywws,2013-07-20 12:45:00,
2013-07-20 08:51:00,89.8,75.5,29.78,West,270,0.0,0.7,63,0.00,,,0.00,pywws,2013-07-20 12:51:00,
2013-07-20 08:57:00,89.8,75.0,29.77,North,0,0.0,0.0,62,0.00,,,0.00,pywws,2013-07-20 12:57:00,
2013-07-20 09:02:00,88.9,74.6,29.77,West,270,0.0,0.0,63,0.00,,,0.00,pywws,2013-07-20 13:02:00,
2013-07-20 09:08:00,91.2,76.3,29.77,West,270,0.0,0.7,62,0.00,,,0.00,pywws,2013-07-20 13:08:00,
2013-07-20 09:13:00,91.8,76.8,29.76,South,180,0.0,0.0,62,0.00,,,0.00,pywws,2013-07-20 13:13:00,
2013-07-20 09:19:00,89.6,74.3,29.76,West,270,0.0,0.0,61,0.00,,,0.00,pywws,2013-07-20 13:19:00,
2013-07-20 09:25:00,90.9,75.5,29.76,West,270,0.0,0.0,61,0.00,,,0.00,pywws,2013-07-20 13:25:00,
2013-07-20 09:30:00,89.1,74.8,29.76,West,270,0.0,0.0,63,0.00,,,0.00,pywws,2013-07-20 13:30:00,
2013-07-20 09:36:00,90.3,75.5,29.76,West,270,0.0,0.7,62,0.00,,,0.00,pywws,2013-07-20 13:36:00,
2013-07-20 09:41:00,87.8,74.1,29.76,SE,135,0.0,0.7,64,0.00,,,0.00,pywws,2013-07-20 13:41:00,
2013-07-20 09:47:00,88.7,74.9,29.76,West,270,0.0,0.0,64,0.00,,,0.00,pywws,2013-07-20 13:47:00,
2013-07-20 09:53:00,89.4,75.6,29.76,SW,225,0.0,0.0,64,0.00,,,0.00,pywws,2013-07-20 13:53:00,
2013-07-20 09:58:00,88.9,75.6,29.77,West,270,0.0,0.0,65,0.00,,,0.00,pywws,2013-07-20 13:58:00,
2013-07-20 10:04:00,88.3,74.6,29.76,West,270,0.0,0.7,64,0.00,,,0.00,pywws,2013-07-20 14:04:00,
2013-07-20 10:09:00,89.2,75.4,29.76,West,270,0.0,0.0,64,0.00,,,0.00,pywws,2013-07-20 14:09:00,
2013-07-20 10:15:00,89.1,75.3,29.76,West,270,0.0,0.0,64,0.00,,,0.00,pywws,2013-07-20 14:15:00,
2013-07-20 10:21:00,88.2,74.9,29.76,West,270,0.0,0.0,65,0.00,,,0.00,pywws,2013-07-20 14:21:00,
2013-07-20 10:26:00,87.8,74.5,29.76,West,270,0.0,1.6,65,0.00,,,0.00,pywws,2013-07-20 14:26:00,
2013-07-20 10:32:00,87.8,74.5,29.76,West,270,0.0,0.0,65,0.00,,,0.00,pywws,2013-07-20 14:32:00,
2013-07-20 10:37:00,87.3,74.0,29.75,North,0,0.0,0.0,65,0.00,,,0.00,pywws,2013-07-20 14:37:00,
2013-07-20 10:43:00,87.6,74.8,29.75,West,270,0.0,0.0,66,0.00,,,0.00,pywws,2013-07-20 14:43:00,
2013-07-20 10:49:00,88.5,75.2,29.75,West,270,0.0,0.0,65,0.00,,,0.00,pywws,2013-07-20 14:49:00,
2013-07-20 10:54:00,91.4,76.0,29.75,West,270,0.0,0.0,61,0.00,,,0.00,pywws,2013-07-20 14:54:00,
2013-07-20 11:00:00,93.7,76.7,29.75,South,180,0.0,0.0,58,0.00,,,0.00,pywws,2013-07-20 15:00:00,
2013-07-20 11:05:00,90.7,73.3,29.75,West,270,0.0,0.7,57,0.00,,,0.00,pywws,2013-07-20 15:05:00,
2013-07-20 11:11:00,90.7,74.3,29.75,West,270,0.0,0.7,59,0.00,,,0.00,pywws,2013-07-20 15:11:00,
2013-07-20 11:17:00,92.5,75.0,29.76,West,270,0.0,0.0,57,0.00,,,0.00,pywws,2013-07-20 15:17:00,
2013-07-20 11:22:00,91.4,73.5,29.75,South,180,0.0,0.0,56,0.00,,,0.00,pywws,2013-07-20 15:22:00,
2013-07-20 11:28:00,91.2,75.4,29.75,West,270,0.0,3.1,60,0.00,,,0.00,pywws,2013-07-20 15:28:00,
2013-07-20 11:33:00,92.7,75.2,29.75,West,270,0.7,2.2,57,0.00,,,0.00,pywws,2013-07-20 15:33:00,
2013-07-20 11:39:00,91.4,72.9,29.75,South,180,0.0,0.0,55,0.00,,,0.00,pywws,2013-07-20 15:39:00,
2013-07-20 11:45:00,89.4,73.2,29.75,West,270,0.0,0.0,59,0.00,,,0.00,pywws,2013-07-20 15:45:00,
2013-07-20 11:50:00,91.2,74.8,29.74,West,270,0.0,0.0,59,0.00,,,0.00,pywws,2013-07-20 15:50:00,
2013-07-20 11:56:00,91.4,74.5,29.74,South,180,0.0,0.0,58,0.00,,,0.00,pywws,2013-07-20 15:56:00,
2013-07-20 12:01:00,91.6,74.7,29.74,West,270,0.0,0.7,58,0.00,,,0.00,pywws,2013-07-20 16:01:00,
2013-07-20 12:07:00,92.1,74.1,29.73,South,180,0.0,0.7,56,0.00,,,0.00,pywws,2013-07-20 16:07:00,
2013-07-20 12:13:00,93.2,74.0,29.74,South,180,0.0,1.6,54,0.00,,,0.00,pywws,2013-07-20 16:13:00,
2013-07-20 12:18:00,94.1,74.3,29.74,West,270,0.0,0.0,53,0.00,,,0.00,pywws,2013-07-20 16:18:00,
2013-07-20 12:24:00,92.8,72.0,29.74,West,270,0.0,0.0,51,0.00,,,0.00,pywws,2013-07-20 16:24:00,
2013-07-20 12:29:00,92.5,72.2,29.74,SW,225,0.0,0.0,52,0.00,,,0.00,pywws,2013-07-20 16:29:00,
2013-07-20 12:35:00,92.8,73.1,29.73,South,180,0.0,0.7,53,0.00,,,0.00,pywws,2013-07-20 16:35:00,
2013-07-20 12:41:00,92.7,73.0,29.73,West,270,0.7,6.0,53,0.00,,,0.00,pywws,2013-07-20 16:41:00,
2013-07-20 12:46:00,91.2,72.8,29.74,West,270,0.0,0.0,55,0.00,,,0.00,pywws,2013-07-20 16:46:00,
2013-07-20 12:52:00,89.8,71.4,29.74,North,0,0.0,0.7,55,0.00,,,0.00,pywws,2013-07-20 16:52:00,
2013-07-20 12:57:00,89.6,71.3,29.74,West,270,0.0,0.7,55,0.00,,,0.00,pywws,2013-07-20 16:57:00,
2013-07-20 13:03:00,90.9,72.4,29.74,West,270,0.0,0.0,55,0.00,,,0.00,pywws,2013-07-20 17:03:00,
2013-07-20 13:09:00,89.4,72.1,29.73,West,270,0.0,0.0,57,0.00,,,0.00,pywws,2013-07-20 17:09:00,
2013-07-20 13:14:00,90.1,71.2,29.73,West,270,0.0,0.0,54,0.00,,,0.00,pywws,2013-07-20 17:14:00,
2013-07-20 13:20:00,89.8,70.3,29.74,SW,225,0.0,0.0,53,0.00,,,0.00,pywws,2013-07-20 17:20:00,
2013-07-20 13:25:00,91.9,70.6,29.74,West,270,1.6,7.6,50,0.00,,,0.00,pywws,2013-07-20 17:25:00,
2013-07-20 13:31:00,92.1,70.8,29.73,SW,225,0.0,5.4,50,0.00,,,0.00,pywws,2013-07-20 17:31:00,
2013-07-20 13:37:00,91.0,68.6,29.73,West,270,0.0,0.7,48,0.00,,,0.00,pywws,2013-07-20 17:37:00,
2013-07-20 13:42:00,91.4,70.1,29.73,West,270,0.0,2.2,50,0.00,,,0.00,pywws,2013-07-20 17:42:00,
2013-07-20 13:48:00,89.8,68.6,29.73,East,90,2.2,7.6,50,0.00,,,0.00,pywws,2013-07-20 17:48:00,
2013-07-20 13:53:00,93.6,72.1,29.73,South,180,0.0,2.2,50,0.00,,,0.00,pywws,2013-07-20 17:53:00,
2013-07-20 13:59:00,93.6,70.9,29.73,West,270,0.0,0.0,48,0.00,,,0.00,pywws,2013-07-20 17:59:00,
2013-07-20 14:05:00,95.4,71.9,29.72,West,270,0.0,0.7,47,0.00,,,0.00,pywws,2013-07-20 18:05:00,
2013-07-20 14:10:00,95.0,70.9,29.72,West,270,0.0,1.6,46,0.00,,,0.00,pywws,2013-07-20 18:10:00,
2013-07-20 14:16:00,95.0,71.6,29.72,West,270,0.0,0.7,47,0.00,,,0.00,pywws,2013-07-20 18:16:00,
2013-07-20 14:21:00,95.9,72.4,29.72,East,90,0.0,0.7,47,0.00,,,0.00,pywws,2013-07-20 18:21:00,
2013-07-20 14:27:00,95.4,71.2,29.72,West,270,0.0,0.0,46,0.00,,,0.00,pywws,2013-07-20 18:27:00,
2013-07-20 14:32:00,97.3,72.4,29.72,West,270,0.0,0.0,45,0.00,,,0.00,pywws,2013-07-20 18:32:00,
2013-07-20 14:37:00,93.2,69.3,29.72,North,0,0.0,0.7,46,0.00,,,0.00,pywws,2013-07-20 18:37:00,
2013-07-20 14:43:00,95.4,71.2,29.72,SW,225,0.0,0.0,46,0.00,,,0.00,pywws,2013-07-20 18:43:00,
2013-07-20 14:48:00,95.5,71.4,29.72,SW,225,0.0,0.7,46,0.00,,,0.00,pywws,2013-07-20 18:48:00,
2013-07-20 14:53:00,95.9,71.1,29.72,West,270,0.0,0.7,45,0.00,,,0.00,pywws,2013-07-20 18:53:00,
2013-07-20 14:59:00,90.9,68.4,29.72,West,270,0.0,1.6,48,0.00,,,0.00,pywws,2013-07-20 18:59:00,
2013-07-20 15:04:00,88.7,68.8,29.74,West,270,0.0,0.0,52,0.00,,,0.00,pywws,2013-07-20 19:04:00,
2013-07-20 15:09:00,80.1,69.8,29.76,East,90,0.0,0.0,71,0.00,,,0.00,pywws,2013-07-20 19:09:00,
2013-07-20 15:16:00,76.6,71.4,29.75,NE,45,0.0,0.0,84,0.14,,,0.14,pywws,2013-07-20 19:16:00,
2013-07-20 15:21:00,76.6,72.5,29.73,East,90,0.0,0.0,87,0.21,,,0.21,pywws,2013-07-20 19:21:00,
2013-07-20 15:27:00,79.2,74.9,29.73,South,180,0.0,0.0,87,0.22,,,0.22,pywws,2013-07-20 19:27:00,
2013-07-20 15:32:00,83.1,78.5,29.73,West,270,0.0,0.0,86,0.22,,,0.22,pywws,2013-07-20 19:32:00,
2013-07-20 15:37:00,85.5,78.9,29.72,East,90,0.0,0.0,81,0.22,,,0.22,pywws,2013-07-20 19:37:00,
2013-07-20 15:42:00,87.3,78.7,29.72,East,90,0.0,0.0,76,0.22,,,0.22,pywws,2013-07-20 19:42:00,
2013-07-20 15:48:00,84.7,76.3,29.72,East,90,0.0,0.0,76,0.22,,,0.22,pywws,2013-07-20 19:48:00,
2013-07-20 15:53:00,82.9,75.4,29.72,East,90,0.0,0.0,78,0.22,,,0.22,pywws,2013-07-20 19:53:00,
2013-07-20 15:58:00,82.4,76.0,29.73,East,90,0.0,0.0,81,0.22,,,0.22,pywws,2013-07-20 19:58:00,
2013-07-20 16:04:00,84.0,78.3,29.73,North,0,0.0,0.0,83,0.22,,,0.22,pywws,2013-07-20 20:04:00,
2013-07-20 16:09:00,84.2,77.7,29.73,North,0,0.0,0.0,81,0.22,,,0.22,pywws,2013-07-20 20:09:00,
2013-07-20 16:15:00,87.6,80.3,29.72,North,0,0.0,0.0,79,0.12,,,0.22,pywws,2013-07-20 20:15:00,
2013-07-20 16:20:00,89.6,79.8,29.72,North,0,0.0,0.0,73,0.01,,,0.22,pywws,2013-07-20 20:20:00,
2013-07-20 16:26:00,86.9,75.9,29.72,SE,135,0.0,0.0,70,0.00,,,0.22,pywws,2013-07-20 20:26:00,
2013-07-20 16:31:00,88.3,77.3,29.72,East,90,0.0,0.0,70,0.00,,,0.22,pywws,2013-07-20 20:31:00,
2013-07-20 16:37:00,88.5,77.5,29.73,North,0,0.0,0.0,70,0.00,,,0.22,pywws,2013-07-20 20:37:00,
2013-07-20 16:42:00,89.2,75.4,29.73,West,270,0.0,0.0,64,0.00,,,0.22,pywws,2013-07-20 20:42:00,
2013-07-20 16:47:00,87.3,74.9,29.74,South,180,0.0,0.7,67,0.00,,,0.22,pywws,2013-07-20 20:47:00,
2013-07-20 16:53:00,86.7,74.0,29.73,South,180,0.0,0.0,66,0.00,,,0.22,pywws,2013-07-20 20:53:00,
2013-07-20 16:58:00,87.1,74.3,29.74,South,180,0.0,0.0,66,0.00,,,0.22,pywws,2013-07-20 20:58:00,
2013-07-20 17:04:00,85.6,72.5,29.74,West,270,0.0,0.0,65,0.00,,,0.22,pywws,2013-07-20 21:04:00,
2013-07-20 17:09:00,85.3,73.5,29.75,West,270,0.0,0.0,68,0.00,,,0.22,pywws,2013-07-20 21:09:00,
2013-07-20 17:14:00,84.0,73.2,29.75,NW,315,0.0,0.0,70,0.00,,,0.22,pywws,2013-07-20 21:14:00,
2013-07-20 17:20:00,83.8,73.4,29.75,West,270,0.0,0.0,71,0.00,,,0.22,pywws,2013-07-20 21:20:00,
2013-07-20 17:25:00,84.0,74.4,29.76,West,270,0.0,0.0,73,0.00,,,0.22,pywws,2013-07-20 21:25:00,
2013-07-20 17:31:00,85.1,74.6,29.75,West,270,0.0,0.0,71,0.00,,,0.22,pywws,2013-07-20 21:31:00,
2013-07-20 17:36:00,86.0,75.0,29.75,West,270,0.0,0.0,70,0.00,,,0.22,pywws,2013-07-20 21:36:00,
2013-07-20 17:41:00,85.8,74.0,29.75,West,270,0.0,0.0,68,0.00,,,0.22,pywws,2013-07-20 21:41:00,
2013-07-20 17:48:00,86.0,73.7,29.75,West,270,0.0,0.0,67,0.00,,,0.22,pywws,2013-07-20 21:48:00,
2013-07-20 17:53:00,86.0,73.7,29.75,SE,135,0.0,0.0,67,0.00,,,0.22,pywws,2013-07-20 21:53:00,
2013-07-20 17:58:00,85.5,73.2,29.75,West,270,0.0,0.0,67,0.00,,,0.22,pywws,2013-07-20 21:58:00,
2013-07-20 18:04:00,85.3,73.5,29.75,West,270,0.0,0.0,68,0.00,,,0.22,pywws,2013-07-20 22:04:00,
2013-07-20 18:09:00,85.3,73.5,29.75,West,270,0.0,0.0,68,0.00,,,0.22,pywws,2013-07-20 22:09:00,
2013-07-20 18:14:00,85.5,74.1,29.75,South,180,0.0,0.0,69,0.00,,,0.22,pywws,2013-07-20 22:14:00,
2013-07-20 18:20:00,85.3,73.5,29.75,West,270,0.0,0.0,68,0.00,,,0.22,pywws,2013-07-20 22:20:00,
2013-07-20 18:25:00,84.9,72.7,29.75,West,270,0.0,0.0,67,0.00,,,0.22,pywws,2013-07-20 22:25:00,
2013-07-20 18:31:00,84.6,72.4,29.75,West,270,0.0,0.0,67,0.00,,,0.22,pywws,2013-07-20 22:31:00,
2013-07-20 18:37:00,84.6,73.2,29.76,West,270,0.0,0.0,69,0.00,,,0.22,pywws,2013-07-20 22:37:00,
2013-07-20 18:44:00,84.4,73.5,29.76,West,270,0.0,0.0,70,0.00,,,0.22,pywws,2013-07-20 22:44:00,
2013-07-20 18:49:00,83.5,73.5,29.75,West,270,0.0,0.0,72,0.00,,,0.22,pywws,2013-07-20 22:49:00,
2013-07-20 18:54:00,82.9,73.8,29.76,West,270,0.0,0.0,74,0.00,,,0.22,pywws,2013-07-20 22:54:00,
2013-07-20 19:00:00,82.9,74.6,29.76,West,270,0.0,0.0,76,0.00,,,0.22,pywws,2013-07-20 23:00:00,
2013-07-20 19:05:00,82.8,74.8,29.76,West,270,0.0,0.0,77,0.00,,,0.22,pywws,2013-07-20 23:05:00,
2013-07-20 19:13:00,82.6,74.6,29.76,West,270,0.0,0.0,77,0.00,,,0.22,pywws,2013-07-20 23:13:00,
2013-07-20 19:19:00,82.0,75.2,29.76,West,270,0.0,0.0,80,0.00,,,0.22,pywws,2013-07-20 23:19:00,
2013-07-20 19:25:00,81.3,74.9,29.76,West,270,0.0,0.0,81,0.00,,,0.22,pywws,2013-07-20 23:25:00,
2013-07-20 19:30:00,81.1,75.1,29.76,West,270,0.0,0.0,82,0.00,,,0.22,pywws,2013-07-20 23:30:00,
2013-07-20 19:36:00,81.1,75.1,29.77,West,270,0.0,0.0,82,0.00,,,0.22,pywws,2013-07-20 23:36:00,
2013-07-20 19:42:00,80.8,75.1,29.77,West,270,0.0,0.0,83,0.00,,,0.22,pywws,2013-07-20 23:42:00,
2013-07-20 19:47:00,80.4,74.8,29.77,North,0,0.0,0.0,83,0.00,,,0.22,pywws,2013-07-20 23:47:00,
2013-07-20 19:52:00,80.4,75.1,29.78,North,0,0.0,0.0,84,0.00,,,0.22,pywws,2013-07-20 23:52:00,
2013-07-20 19:58:00,79.9,74.2,29.78,North,0,0.0,0.0,83,0.00,,,0.22,pywws,2013-07-20 23:58:00,
2013-07-20 20:04:00,79.7,74.1,29.78,North,0,0.0,0.0,83,0.00,,,0.22,pywws,2013-07-21 00:04:00,
2013-07-20 20:09:00,79.5,74.2,29.78,East,90,0.0,0.0,84,0.00,,,0.22,pywws,2013-07-21 00:09:00,
2013-07-20 20:14:00,79.3,74.4,29.79,East,90,0.0,0.0,85,0.00,,,0.22,pywws,2013-07-21 00:14:00,
2013-07-20 20:20:00,79.2,74.2,29.79,East,90,0.0,0.0,85,0.00,,,0.22,pywws,2013-07-21 00:20:00,
2013-07-20 20:25:00,79.2,74.2,29.79,North,0,0.0,0.0,85,0.00,,,0.22,pywws,2013-07-21 00:25:00,
2013-07-20 20:31:00,78.8,73.9,29.79,East,90,0.0,0.0,85,0.00,,,0.22,pywws,2013-07-21 00:31:00,
2013-07-20 20:36:00,80.2,74.2,29.80,SW,225,0.0,0.0,82,0.00,,,0.22,pywws,2013-07-21 00:36:00,
2013-07-20 20:41:00,81.7,71.3,29.81,West,270,0.0,0.7,71,0.00,,,0.22,pywws,2013-07-21 00:41:00,
2013-07-20 20:48:00,81.7,70.9,29.81,SE,135,0.0,2.2,70,0.00,,,0.22,pywws,2013-07-21 00:48:00,
2013-07-20 20:53:00,81.9,70.2,29.81,North,0,0.0,0.0,68,0.00,,,0.22,pywws,2013-07-21 00:53:00,
2013-07-20 20:58:00,81.3,69.7,29.81,North,0,0.0,0.0,68,0.00,,,0.22,pywws,2013-07-21 00:58:00,
2013-07-20 21:04:00,81.5,69.5,29.81,West,270,0.0,0.7,67,0.00,,,0.22,pywws,2013-07-21 01:04:00,
2013-07-20 21:09:00,80.6,68.6,29.81,East,90,0.0,0.0,67,0.00,,,0.22,pywws,2013-07-21 01:09:00,
2013-07-20 21:15:00,80.2,69.1,29.81,West,270,0.0,0.0,69,0.00,,,0.22,pywws,2013-07-21 01:15:00,
2013-07-20 21:21:00,79.2,69.3,29.81,North,0,0.0,0.0,72,0.00,,,0.22,pywws,2013-07-21 01:21:00,
2013-07-20 21:27:00,78.8,69.4,29.82,South,180,0.0,0.0,73,0.00,,,0.22,pywws,2013-07-21 01:27:00,
2013-07-20 21:32:00,78.1,69.1,29.82,South,180,0.0,0.0,74,0.00,,,0.22,pywws,2013-07-21 01:32:00,
2013-07-20 21:37:00,77.2,69.0,29.83,South,180,0.0,0.0,76,0.00,,,0.22,pywws,2013-07-21 01:37:00,
2013-07-20 21:44:00,76.6,69.3,29.83,NW,315,0.0,0.0,78,0.00,,,0.22,pywws,2013-07-21 01:44:00,
2013-07-20 21:49:00,76.3,69.6,29.83,East,90,0.0,0.0,80,0.00,,,0.22,pywws,2013-07-21 01:49:00,
2013-07-20 21:55:00,75.7,69.1,29.83,East,90,0.0,0.0,80,0.00,,,0.22,pywws,2013-07-21 01:55:00,
2013-07-20 22:00:00,75.6,69.7,29.83,South,180,0.0,0.0,82,0.00,,,0.22,pywws,2013-07-21 02:00:00,
2013-07-20 22:05:00,75.7,69.1,29.83,West,270,0.0,0.0,80,0.00,,,0.22,pywws,2013-07-21 02:05:00,
2013-07-20 22:11:00,75.9,68.9,29.83,West,270,0.0,0.0,79,0.00,,,0.22,pywws,2013-07-21 02:11:00,
2013-07-20 22:18:00,75.6,68.6,29.83,South,180,0.0,0.0,79,0.00,,,0.22,pywws,2013-07-21 02:18:00,
2013-07-20 22:23:00,74.8,67.9,29.84,South,180,0.0,0.0,79,0.00,,,0.22,pywws,2013-07-21 02:23:00,
2013-07-20 22:30:00,74.3,67.7,29.84,South,180,0.0,0.0,80,0.00,,,0.22,pywws,2013-07-21 02:30:00,
2013-07-20 22:35:00,74.1,67.9,29.84,South,180,0.0,0.0,81,0.00,,,0.22,pywws,2013-07-21 02:35:00,
2013-07-20 22:41:00,73.6,68.1,29.84,North,0,0.0,0.0,83,0.00,,,0.22,pywws,2013-07-21 02:41:00,
2013-07-20 22:46:00,73.2,67.7,29.84,North,0,0.0,0.0,83,0.00,,,0.22,pywws,2013-07-21 02:46:00,
2013-07-20 22:53:00,72.5,67.4,29.84,North,0,0.0,0.0,84,0.00,,,0.22,pywws,2013-07-21 02:53:00,
2013-07-20 22:58:00,72.1,67.0,29.85,North,0,0.0,0.0,84,0.00,,,0.22,pywws,2013-07-21 02:58:00,
2013-07-20 23:04:00,71.6,66.8,29.85,North,0,0.0,0.0,85,0.00,,,0.22,pywws,2013-07-21 03:04:00,
2013-07-20 23:11:00,71.1,67.0,29.85,North,0,0.0,0.0,87,0.00,,,0.22,pywws,2013-07-21 03:11:00,
2013-07-20 23:17:00,70.5,66.5,29.85,North,0,0.0,0.0,87,0.00,,,0.22,pywws,2013-07-21 03:17:00,
2013-07-20 23:22:00,70.2,66.4,29.85,North,0,0.0,0.0,88,0.00,,,0.22,pywws,2013-07-21 03:22:00,
2013-07-20 23:28:00,70.0,66.3,29.86,North,0,0.0,0.0,88,0.00,,,0.22,pywws,2013-07-21 03:28:00,
2013-07-20 23:37:00,69.6,66.6,29.87,North,0,0.0,0.0,90,0.00,,,0.22,pywws,2013-07-21 03:37:00,
2013-07-20 23:42:00,69.3,66.5,29.87,North,0,0.0,0.0,91,0.00,,,0.22,pywws,2013-07-21 03:42:00,
2013-07-20 23:48:00,69.3,66.8,29.87,North,0,0.0,0.0,92,0.00,,,0.22,pywws,2013-07-21 03:48:00,
2013-07-20 23:53:00,69.1,67.0,29.87,North,0,0.0,0.0,93,0.00,,,0.22,pywws,2013-07-21 03:53:00,
2013-07-20 23:59:00,68.9,66.8,29.86,West,270,0.0,0.0,93,0.00,,,0.22,pywws,2013-07-21 03:59:00,